This is the latest recevied weather packets stored in our database for station/object KG5VSR. If no packets are shown the sender has not sent any weather packets the latest 1 day(s).
| Time | Temp. | Humidity | Pressure | Rain* | Wind** | Luminosity | Snow |
|---|---|---|---|---|---|---|---|
| 1778082771 | 12.22° C | 96% | 1013.9 hPa | 13.72 mm | - | 122 W/m² | - |
| 1778080968 | 12.22° C | 92% | 1016.7 hPa | 19.81 mm | - | 10 W/m² | - |
| 1778073758 | 12.78° C | 86% | 1013.6 hPa | 0 mm | - | 29 W/m² | - |
| 1778071953 | 12.78° C | 85% | 1013.7 hPa | 0 mm | - | 27 W/m² | - |
| 1778064743 | 14.44° C | 81% | 1011.6 hPa | 0 mm | - | 0 W/m² | - |
| 1778059331 | 15° C | 80% | 1010.8 hPa | 0 mm | - | 0 W/m² | - |
| 1778057531 | 15.56° C | 81% | 1010.4 hPa | 0 mm | - | 0 W/m² | - |
| 1778055728 | 16.11° C | 81% | 1009.9 hPa | 0 mm | - | 0 W/m² | - |
| 1778052119 | 16.11° C | 81% | 1010.2 hPa | 0 mm | - | 0 W/m² | - |
| 1778041308 | 20° C | 81% | 1009.5 hPa | 0 mm | - | 0 W/m² | - |
| 1778039509 | 21.11° C | 81% | 1009 hPa | 0 mm | - | 0 W/m² | - |
| 1778037709 | 21.67° C | 81% | 1008.7 hPa | 0 mm | - | 0 W/m² | - |
| 1778035908 | 22.22° C | 81% | 1007.8 hPa | 0 mm | - | 0 W/m² | - |
| 1778034107 | 20° C | 95% | 1006.9 hPa | 0 mm | - | 0 W/m² | - |
| 1778032303 | 20° C | 98% | 1006.5 hPa | 0 mm | - | 0 W/m² | - |
| 1778030501 | 21.11° C | 99% | 1006.4 hPa | 0 mm | - | 0 W/m² | - |
| 1778028696 | 24.44° C | 99% | 1005.3 hPa | 0 mm | - | 3 W/m² | - |
| 1778026891 | 23.89° C | 98% | 1005.4 hPa | 1.78 mm | - | 16 W/m² | - |
| 1778017885 | 32.22° C | 65% | 1004 hPa | 0 mm | - | 518 W/m² | - |
| 1778014285 | 33.33° C | 57% | 1004.6 hPa | 0 mm | - | 688 W/m² | - |
| 1778010683 | 31.67° C | 65% | 1005.3 hPa | 0 mm | - | 707 W/m² | - |
* Rain latest hour (hover to see other rain measurements)
** Current wind speed in m/s (hover to see current wind gust speed)